메인 페이지
METAR-TAF:

METAR-TAF

공항 :

솔트레이크시티 국제공항

솔트레이크시티, 유타, 미국

위도: 40-46-41N, 경도: 111-58-10W, 고도: 1288m

현재 날씨관측

예보는 1 시간 2분 전, 03:54시(UTC)에 발표되었습니다.
남동5kt
온도 5°C
습도 56%
기압 1028 hPa
시정: 16.1km
맑음

METAR: KSLC 160354Z 14005KT 10SM CLR 05/M03 A3036 RMK AO2 SLP282 T00501028

시각: 22:56 (04:56 UTC)

예보

예보는 1 시간 49분 전, 03:07시(UTC)에 발표되었습니다.
예보 대상 시간: 16일 03시부터 17일 06시까지 (UTC)
남남동5kt
시정: 10km
맑음
16일 1500시부터 (UTC)
북서5kt
시정: 10km
맑음
16일 1800시부터 (UTC)
북북서10kt
시정: 10km
맑음
17일 0300시부터 (UTC)
남남동4kt
시정: 10km
맑음

TAF: KSLC 160307Z 1603/1706 15005KT P6SM SKC FM161500 32005KT P6SM SKC FM161800 33010KT P6SM SKC FM170300 15004KT P6SM SKC

4,000개 이상의 공항 관측 자료 및 예보 (METAR 및 TAF 보고).

지도상에서 검색 가능한 기상관측소가 노란 점과 빨간 점으로 표시되어 있습니다.

기상관측소 명을 보려면 표시 위로 마우스를 이동하세요.

날씨 관측과 예보를 보려면 클릭하세요.

지도 변경 : 확대하려면 엑스 표시가 있는 녹색 버튼, 축소하려면 빼기 표시가 있는 녹색 버튼, 다음 페이지의 지도를 보려면 녹색 화살표를 클릭하세요.


METAR-TAF: